Map

Track Data

SID SEASON NUMBER BASIN SUBBASIN NAME ISO_TIME NATURE LAT LON WMO_WIND WMO_PRES WMO_AGENCY TRACK_TYPE DIST2LAND LANDFALL IFLAG USA_AGENCY USA_ATCF_ID USA_LAT USA_LON USA_RECORD USA_STATUS USA_WIND USA_PRES USA_SSHS USA_R34_NE USA_R34_SE USA_R34_SW USA_R34_NW USA_R50_NE USA_R50_SE USA_R50_SW USA_R50_NW USA_R64_NE USA_R64_SE USA_R64_SW USA_R64_NW USA_POCI USA_ROCI USA_RMW USA_EYE TOKYO_LAT TOKYO_LON TOKYO_GRADE TOKYO_WIND TOKYO_PRES TOKYO_R50_DIR TOKYO_R50_LONG TOKYO_R50_SHORT TOKYO_R30_DIR TOKYO_R30_LONG TOKYO_R30_SHORT TOKYO_LAND CMA_LAT CMA_LON CMA_CAT CMA_WIND CMA_PRES HKO_LAT HKO_LON HKO_CAT HKO_WIND HKO_PRES NEWDELHI_LAT NEWDELHI_LON NEWDELHI_GRADE NEWDELHI_WIND NEWDELHI_PRES NEWDELHI_CI NEWDELHI_DP NEWDELHI_POCI REUNION_LAT REUNION_LON REUNION_TYPE REUNION_WIND REUNION_PRES REUNION_TNUM REUNION_CI REUNION_RMW REUNION_R34_NE REUNION_R34_SE REUNION_R34_SW REUNION_R34_NW REUNION_R50_NE REUNION_R50_SE REUNION_R50_SW REUNION_R50_NW REUNION_R64_NE REUNION_R64_SE REUNION_R64_SW REUNION_R64_NW BOM_LAT BOM_LON BOM_TYPE BOM_WIND BOM_PRES BOM_TNUM BOM_CI BOM_RMW BOM_R34_NE BOM_R34_SE BOM_R34_SW BOM_R34_NW BOM_R50_NE BOM_R50_SE BOM_R50_SW BOM_R50_NW BOM_R64_NE BOM_R64_SE BOM_R64_SW BOM_R64_NW BOM_ROCI BOM_POCI BOM_EYE BOM_POS_METHOD BOM_PRES_METHOD NADI_LAT NADI_LON NADI_CAT NADI_WIND NADI_PRES WELLINGTON_LAT WELLINGTON_LON WELLINGTON_WIND WELLINGTON_PRES DS824_LAT DS824_LON DS824_STAGE DS824_WIND DS824_PRES TD9636_LAT TD9636_LON TD9636_STAGE TD9636_WIND TD9636_PRES TD9635_LAT TD9635_LON TD9635_WIND TD9635_PRES TD9635_ROCI NEUMANN_LAT NEUMANN_LON NEUMANN_CLASS NEUMANN_WIND NEUMANN_PRES MLC_LAT MLC_LON MLC_CLASS MLC_WIND MLC_PRES USA_GUST BOM_GUST BOM_GUST_PER REUNION_GUST REUNION_GUST_PER USA_SEAHGT USA_SEARAD_NE USA_SEARAD_SE USA_SEARAD_SW USA_SEARAD_NW STORM_SPEED STORM_DIR
1942262N35295 1942 54 NA NA NOT_NAMED 1942-09-18 12:00:00 TS 35.0000 -65.0000 35 hurdat_atl main 863 863 O_____________ hurdat_atl AL061942 35.0000 -65.0000 TS 35 0 6 189
1942262N35295 1942 54 NA NA NOT_NAMED 1942-09-18 15:00:00 TS 34.7100 -65.0498 main 892 888 P_____________ AL061942 34.7100 -65.0498 TS 35 0 6 195
1942262N35295 1942 54 NA NA NOT_NAMED 1942-09-18 18:00:00 TS 34.4000 -65.2000 35 hurdat_atl main 914 914 O_____________ hurdat_atl AL061942 34.4000 -65.2000 TS 35 0 8 211
1942262N35295 1942 54 NA NA NOT_NAMED 1942-09-18 21:00:00 TS 34.0573 -65.5249 main 928 896 P_____________ AL061942 34.0573 -65.5249 TS 35 0 10 223
1942262N35295 1942 54 NA NA NOT_NAMED 1942-09-19 00:00:00 TS 33.7000 -66.0000 35 hurdat_atl main 896 855 O_____________ hurdat_atl AL061942 33.7000 -66.0000 TS 35 0 12 231
1942262N35295 1942 54 NA NA NOT_NAMED 1942-09-19 03:00:00 TS 33.3355 -66.6005 main 859 821 P_____________ AL061942 33.3355 -66.6005 TS 37 0 12 235
1942262N35295 1942 54 NA NA NOT_NAMED 1942-09-19 06:00:00 TS 33.0000 -67.2000 40 hurdat_atl main 821 802 O_____________ hurdat_atl AL061942 33.0000 -67.2000 TS 40 0 11 233
1942262N35295 1942 54 NA NA NOT_NAMED 1942-09-19 09:00:00 TS 32.6822 -67.6524 main 794 780 P_____________ AL061942 32.6822 -67.6524 TS 40 0 8 233
1942262N35295 1942 54 NA NA NOT_NAMED 1942-09-19 12:00:00 TS 32.5000 -68.0000 40 hurdat_atl main 780 756 O_____________ hurdat_atl AL061942 32.5000 -68.0000 TS 40 0 6 253
1942262N35295 1942 54 NA NA NOT_NAMED 1942-09-19 15:00:00 TS 32.5248 -68.2796 main 756 728 P_____________ AL061942 32.5248 -68.2796 TS 42 0 5 295
1942262N35295 1942 54 NA NA NOT_NAMED 1942-09-19 18:00:00 TS 32.7000 -68.5000 45 hurdat_atl main 728 701 O_____________ hurdat_atl AL061942 32.7000 -68.5000 TS 45 0 5 317
1942262N35295 1942 54 NA NA NOT_NAMED 1942-09-19 21:00:00 TS 32.9125 -68.7150 main 701 669 P_____________ AL061942 32.9125 -68.7150 TS 45 0 6 326
1942262N35295 1942 54 NA NA NOT_NAMED 1942-09-20 00:00:00 TS 33.2000 -68.9000 45 hurdat_atl main 669 646 O_____________ hurdat_atl AL061942 33.2000 -68.9000 TS 45 0 7 336
1942262N35295 1942 54 NA NA NOT_NAMED 1942-09-20 03:00:00 TS 33.5425 -69.0576 main 637 611 P_____________ AL061942 33.5425 -69.0576 TS 45 0 7 340
1942262N35295 1942 54 NA NA NOT_NAMED 1942-09-20 06:00:00 TS 33.9000 -69.2000 45 hurdat_atl main 611 582 O_____________ hurdat_atl AL061942 33.9000 -69.2000 TS 45 0 7 339
1942262N35295 1942 54 NA NA NOT_NAMED 1942-09-20 09:00:00 TS 34.2225 -69.3724 main 582 563 P_____________ AL061942 34.2225 -69.3724 TS 45 0 7 338
1942262N35295 1942 54 NA NA NOT_NAMED 1942-09-20 12:00:00 TS 34.5000 -69.5000 45 hurdat_atl main 563 557 O_____________ hurdat_atl AL061942 34.5000 -69.5000 TS 45 0 5 344
1942262N35295 1942 54 NA NA NOT_NAMED 1942-09-20 15:00:00 TS 34.7224 -69.5451 main 557 552 P_____________ AL061942 34.7224 -69.5451 TS 45 0 4 0
1942262N35295 1942 54 NA NA NOT_NAMED 1942-09-20 18:00:00 TS 34.9000 -69.5000 45 hurdat_atl main 552 549 O_____________ hurdat_atl AL061942 34.9000 -69.5000 TS 45 0 4 24
1942262N35295 1942 54 NA NA NOT_NAMED 1942-09-20 21:00:00 TS 35.0500 -69.3725 main 556 556 P_____________ AL061942 35.0500 -69.3725 TS 45 0 4 39
1942262N35295 1942 54 NA NA NOT_NAMED 1942-09-21 00:00:00 TS 35.2000 -69.2000 45 hurdat_atl main 572 571 O_____________ hurdat_atl AL061942 35.2000 -69.2000 TS 45 0 4 37
1942262N35295 1942 54 NA NA NOT_NAMED 1942-09-21 03:00:00 TS 35.3925 -69.0574 main 578 578 P_____________ AL061942 35.3925 -69.0574 TS 45 0 5 31
1942262N35295 1942 54 NA NA NOT_NAMED 1942-09-21 06:00:00 TS 35.6000 -68.9000 45 hurdat_atl main 594 594 O_____________ hurdat_atl AL061942 35.6000 -68.9000 TS 45 0 5 37
1942262N35295 1942 54 NA NA NOT_NAMED 1942-09-21 09:00:00 TS 35.7775 -68.7073 main 611 611 P_____________ AL061942 35.7775 -68.7073 TS 42 0 5 39
1942262N35295 1942 54 NA NA NOT_NAMED 1942-09-21 12:00:00 TS 36.0000 -68.5000 40 hurdat_atl main 629 614 O_____________ hurdat_atl AL061942 36.0000 -68.5000 TS 40 0 6 32
1942262N35295 1942 54 NA NA NOT_NAMED 1942-09-21 15:00:00 TS 36.3050 -68.2998 main 614 579 P_____________ AL061942 36.3050 -68.2998 TS 40 0 8 25
1942262N35295 1942 54 NA NA NOT_NAMED 1942-09-21 18:00:00 TS 36.7000 -68.1000 40 hurdat_atl main 579 539 O_____________ hurdat_atl AL061942 36.7000 -68.1000 TS 40 0 9 20
1942262N35295 1942 54 NA NA NOT_NAMED 1942-09-21 21:00:00 TS 37.1624 -67.9144 main 532 486 P_____________ AL061942 37.1624 -67.9144 TS 40 0 11 18
1942262N35295 1942 54 NA NA NOT_NAMED 1942-09-22 00:00:00 ET 37.7000 -67.7000 40 hurdat_atl main 486 438 O_____________ hurdat_atl AL061942 37.7000 -67.7000 EX 40 -4 12 19
1942262N35295 1942 54 NA NA NOT_NAMED 1942-09-22 03:00:00 ET 38.2925 -67.4151 main 438 396 P_____________ AL061942 38.2925 -67.4151 EX 40 -4 13 21
1942262N35295 1942 54 NA NA NOT_NAMED 1942-09-22 06:00:00 ET 38.9000 -67.1000 40 hurdat_atl main 396 365 O_____________ hurdat_atl AL061942 38.9000 -67.1000 EX 40 -4 13 21
1942262N35295 1942 54 NA NA NOT_NAMED 1942-09-22 09:00:00 ET 39.4796 -66.8292 main 363 348 P_____________ AL061942 39.4796 -66.8292 EX 37 -4 12 23
1942262N35295 1942 54 NA NA NOT_NAMED 1942-09-22 12:00:00 ET 40.0000 -66.5000 35 hurdat_atl main 349 342 O_____________ hurdat_atl AL061942 40.0000 -66.5000 EX 35 -4 11 32
1942262N35295 1942 54 NA NA NOT_NAMED 1942-09-22 15:00:00 ET 40.4373 -66.0521 main 346 300 P_____________ AL061942 40.4373 -66.0521 EX 35 -4 11 44
1942262N35295 1942 54 NA NA NOT_NAMED 1942-09-22 18:00:00 ET 40.8000 -65.5000 35 hurdat_atl main 300 268 O_____________ hurdat_atl AL061942 40.8000 -65.5000 EX 35 -4 11 53
1942262N35295 1942 54 NA NA NOT_NAMED 1942-09-22 21:00:00 ET 41.1149 -64.8792 main 268 247 P_____________ AL061942 41.1149 -64.8792 EX 35 -4 11 59
1942262N35295 1942 54 NA NA NOT_NAMED 1942-09-23 00:00:00 ET 41.4000 -64.2000 35 hurdat_atl main 250 240 O_____________ hurdat_atl AL061942 41.4000 -64.2000 EX 35 -4 12 60
1942262N35295 1942 54 NA NA NOT_NAMED 1942-09-23 03:00:00 ET 41.7073 -63.4998 main 248 244 P_____________ AL061942 41.7073 -63.4998 EX 35 -4 12 60
1942262N35295 1942 54 NA NA NOT_NAMED 1942-09-23 06:00:00 ET 42.0000 -62.8000 35 hurdat_atl main 257 257 O_____________ hurdat_atl AL061942 42.0000 -62.8000 EX 35 -4 12 62
1942262N35295 1942 54 NA NA NOT_NAMED 1942-09-23 09:00:00 ET 42.2574 -62.1120 main 262 261 P_____________ AL061942 42.2574 -62.1120 EX 35 -4 11 63
1942262N35295 1942 54 NA NA NOT_NAMED 1942-09-23 12:00:00 ET 42.5000 -61.5000 35 hurdat_atl main 265 255 O_____________ hurdat_atl AL061942 42.5000 -61.5000 EX 35 -4 9 59
1942262N35295 1942 54 NA NA NOT_NAMED 1942-09-23 15:00:00 ET 42.7344 -61.0190 main 262 242 P_____________ AL061942 42.7344 -61.0190 EX 35 -4 8 53
1942262N35295 1942 54 NA NA NOT_NAMED 1942-09-23 18:00:00 ET 43.0000 -60.6000 35 hurdat_atl main 245 222 O_____________ hurdat_atl AL061942 43.0000 -60.6000 EX 35 -4 9 47
1942262N35295 1942 54 NA NA NOT_NAMED 1942-09-23 21:00:00 ET 43.3273 -60.1496 main 225 195 P_____________ AL061942 43.3273 -60.1496 EX 35 -4 10 43
1942262N35295 1942 54 NA NA NOT_NAMED 1942-09-24 00:00:00 ET 43.7000 -59.7000 35 hurdat_atl main 200 187 O_____________ hurdat_atl AL061942 43.7000 -59.7000 EX 35 -4 10 41
1942262N35295 1942 54 NA NA NOT_NAMED 1942-09-24 03:00:00 ET 44.0774 -59.2419 main 191 174 P_____________ AL061942 44.0774 -59.2419 EX 35 -4 10 39
1942262N35295 1942 54 NA NA NOT_NAMED 1942-09-24 06:00:00 ET 44.5000 -58.8000 35 hurdat_atl main 174 159 O_____________ hurdat_atl AL061942 44.5000 -58.8000 EX 35 -4 11 34
1942262N35295 1942 54 NA NA NOT_NAMED 1942-09-24 09:00:00 ET 44.9470 -58.4128 main 165 157 P_____________ AL061942 44.9470 -58.4128 EX 35 -4 11 30
1942262N35295 1942 54 NA NA NOT_NAMED 1942-09-24 12:00:00 ET 45.5000 -58.0000 35 hurdat_atl main 159 153 O_____________ hurdat_atl AL061942 45.5000 -58.0000 EX 35 -4 14 27
1942262N35295 1942 54 NA NA NOT_NAMED 1942-09-24 15:00:00 ET 46.1741 -57.5284 main 144 66 P_____________ AL061942 46.1741 -57.5284 EX 35 -4 17 27
1942262N35295 1942 54 NA NA NOT_NAMED 1942-09-24 18:00:00 ET 47.0000 -56.9000 35 hurdat_atl main 55 0 O_____________ hurdat_atl AL061942 47.0000 -56.9000 EX 35 -4 21 30
1942262N35295 1942 54 NA NA NOT_NAMED 1942-09-24 21:00:00 ET 47.9649 -56.0332 main 0 0 P_____________ AL061942 47.9649 -56.0332 EX 35 -4 24 32
1942262N35295 1942 54 NA NA NOT_NAMED 1942-09-25 00:00:00 ET 49.0000 -55.0000 35 hurdat_atl main 0 O_____________ hurdat_atl AL061942 49.0000 -55.0000 EX 35 -4 25 33

About IBTrACS Database

This database is a web-friendly format of International Best Track Archive for Climate Stewardship (IBTrACS), a global best track data archive curated by NOAA dating back to 1842.

Updated: 2021-10-08